createdAt,value
2018-09-09T00:00:26.720Z,99.90
2018-09-09T00:02:55.549Z,99.90
2018-09-09T00:05:24.399Z,99.90
2018-09-09T00:07:53.278Z,99.90
2018-09-09T00:10:22.190Z,99.90
2018-09-09T00:12:51.058Z,99.90
2018-09-09T00:15:19.957Z,99.90
2018-09-09T00:17:48.812Z,99.90
2018-09-09T00:20:17.753Z,99.90
2018-09-09T00:22:46.736Z,99.90
2018-09-09T00:25:15.558Z,99.90
2018-09-09T00:27:47.447Z,99.90
2018-09-09T00:30:16.399Z,99.90
2018-09-09T00:32:45.243Z,99.90
2018-09-09T00:35:14.093Z,99.90
2018-09-09T00:37:42.947Z,99.90
2018-09-09T00:40:11.843Z,99.90
2018-09-09T00:42:40.699Z,99.90
2018-09-09T00:45:09.567Z,99.90
2018-09-09T00:47:45.109Z,99.90
2018-09-09T00:50:20.666Z,99.90
2018-09-09T00:52:55.275Z,99.90
2018-09-09T00:55:24.285Z,99.90
2018-09-09T00:57:53.114Z,99.90
2018-09-09T01:00:27.651Z,99.90
2018-09-09T01:02:56.474Z,99.90
2018-09-09T01:05:25.325Z,99.90
2018-09-09T01:07:54.301Z,99.90
2018-09-09T01:10:23.193Z,99.90
2018-09-09T01:12:52.070Z,99.90
2018-09-09T01:15:20.947Z,99.90
2018-09-09T01:17:49.792Z,99.90
2018-09-09T01:20:18.785Z,99.90
2018-09-09T01:22:47.637Z,99.90
2018-09-09T01:25:16.467Z,99.90
2018-09-09T01:27:45.309Z,99.90
2018-09-09T01:30:14.230Z,99.90
2018-09-09T01:32:43.091Z,99.90
2018-09-09T01:35:11.978Z,99.90
2018-09-09T01:37:40.827Z,99.90
2018-09-09T01:40:09.898Z,99.90
2018-09-09T01:42:38.754Z,99.90
2018-09-09T01:45:07.778Z,99.90
2018-09-09T01:47:36.684Z,99.90
2018-09-09T01:50:05.791Z,99.90
2018-09-09T01:52:34.668Z,99.90
2018-09-09T01:55:03.763Z,99.90
2018-09-09T01:57:32.655Z,99.90
2018-09-09T02:00:01.559Z,99.90
2018-09-09T02:02:30.407Z,99.90
2018-09-09T02:04:59.275Z,99.90
2018-09-09T02:07:28.120Z,99.90
2018-09-09T02:09:56.993Z,99.90
2018-09-09T02:12:25.831Z,99.90
2018-09-09T02:14:54.679Z,99.90
2018-09-09T02:17:23.512Z,99.90
2018-09-09T02:19:52.517Z,99.90
2018-09-09T02:22:21.355Z,99.90
2018-09-09T02:24:50.293Z,99.90
2018-09-09T02:27:19.159Z,99.90
2018-09-09T02:29:48.019Z,99.90
2018-09-09T02:32:17.444Z,99.90
2018-09-09T02:34:46.282Z,99.90
2018-09-09T02:37:15.120Z,99.90
2018-09-09T02:39:43.981Z,99.90
2018-09-09T02:42:12.825Z,99.90
2018-09-09T02:44:41.816Z,99.90
2018-09-09T02:47:10.691Z,99.90
2018-09-09T02:49:39.667Z,99.90
2018-09-09T02:52:08.523Z,99.90
2018-09-09T02:54:37.398Z,99.90
2018-09-09T02:57:06.336Z,99.90
2018-09-09T02:59:35.212Z,99.90
2018-09-09T03:02:04.111Z,99.90
2018-09-09T03:04:32.960Z,99.90
2018-09-09T03:07:01.812Z,99.90
2018-09-09T03:09:30.672Z,99.90
2018-09-09T03:11:59.496Z,99.90
2018-09-09T03:14:28.379Z,99.90
2018-09-09T03:16:57.219Z,99.90
2018-09-09T03:19:26.170Z,99.90
2018-09-09T03:21:55.052Z,99.90
2018-09-09T03:24:23.929Z,99.90
2018-09-09T03:26:52.773Z,99.90
2018-09-09T03:29:21.700Z,99.90
2018-09-09T03:31:50.564Z,99.90
2018-09-09T03:34:19.399Z,99.90
2018-09-09T03:36:48.384Z,99.90
2018-09-09T03:39:17.292Z,99.90
2018-09-09T03:41:46.180Z,99.90
2018-09-09T03:44:15.037Z,99.90
2018-09-09T03:46:43.928Z,99.90
2018-09-09T03:49:12.836Z,99.90
2018-09-09T03:51:41.683Z,99.90
2018-09-09T03:54:10.542Z,99.90
2018-09-09T03:56:39.392Z,99.90
2018-09-09T03:59:08.307Z,99.90
2018-09-09T04:01:37.200Z,99.90
2018-09-09T04:04:06.112Z,99.90
2018-09-09T04:06:34.976Z,99.90
2018-09-09T04:09:07.572Z,99.90
2018-09-09T04:11:36.459Z,99.90
2018-09-09T04:14:05.440Z,99.90
2018-09-09T04:16:34.280Z,99.90
2018-09-09T04:19:03.255Z,99.90
2018-09-09T04:21:36.820Z,99.90
2018-09-09T04:24:05.744Z,99.90
2018-09-09T04:26:34.564Z,99.90
2018-09-09T04:29:03.486Z,99.90
2018-09-09T04:31:32.377Z,99.90
2018-09-09T04:34:01.248Z,99.90
2018-09-09T04:36:30.210Z,99.90
2018-09-09T04:38:59.291Z,99.90
2018-09-09T04:41:28.192Z,99.90
2018-09-09T04:43:57.136Z,99.90
2018-09-09T04:46:26.066Z,99.90
2018-09-09T04:48:55.005Z,99.90
2018-09-09T04:51:23.846Z,99.90
2018-09-09T04:53:52.711Z,99.90
2018-09-09T04:56:21.703Z,99.90
2018-09-09T04:58:50.739Z,99.90
2018-09-09T05:01:19.653Z,99.90
2018-09-09T05:03:48.475Z,99.90
2018-09-09T05:06:17.297Z,99.90
2018-09-09T05:08:46.179Z,99.90
2018-09-09T05:11:15.112Z,99.90
2018-09-09T05:13:43.944Z,99.90
2018-09-09T05:16:13.035Z,99.90
2018-09-09T05:18:41.886Z,99.90
2018-09-09T05:21:10.799Z,99.90
2018-09-09T05:23:39.648Z,99.90
2018-09-09T05:26:08.514Z,99.90
2018-09-09T05:28:37.384Z,99.90
2018-09-09T05:31:06.626Z,99.90
2018-09-09T05:33:35.516Z,99.90
2018-09-09T05:36:04.412Z,99.90
2018-09-09T05:38:33.342Z,99.90
2018-09-09T05:41:02.252Z,99.90
2018-09-09T05:43:31.109Z,99.90
2018-09-09T05:45:59.939Z,99.90
2018-09-09T05:48:28.830Z,99.90
2018-09-09T05:50:58.697Z,99.90
2018-09-09T05:53:27.676Z,99.90
2018-09-09T05:55:56.539Z,99.90
2018-09-09T05:58:25.385Z,99.90
2018-09-09T06:00:54.301Z,99.90
2018-09-09T06:03:23.171Z,99.90
2018-09-09T06:05:52.081Z,99.90
2018-09-09T06:08:20.933Z,99.90
2018-09-09T06:10:53.248Z,99.90
2018-09-09T06:13:24.187Z,99.90
2018-09-09T06:15:53.040Z,99.90
2018-09-09T06:18:21.891Z,99.90
2018-09-09T06:20:50.847Z,99.90
2018-09-09T06:23:19.655Z,99.90
2018-09-09T06:25:48.527Z,99.90
2018-09-09T06:28:17.435Z,99.90
2018-09-09T06:30:46.283Z,99.90
2018-09-09T06:33:15.111Z,99.90
2018-09-09T06:35:43.976Z,99.90
2018-09-09T06:38:12.806Z,99.90
2018-09-09T06:40:41.832Z,99.90
2018-09-09T06:43:10.708Z,99.90
2018-09-09T06:45:39.617Z,99.90
2018-09-09T06:48:08.463Z,99.90
2018-09-09T06:50:37.406Z,99.90
2018-09-09T06:53:06.730Z,99.90
2018-09-09T06:55:35.572Z,99.90
2018-09-09T06:58:04.631Z,99.90
2018-09-09T07:00:33.591Z,99.90
2018-09-09T07:03:02.447Z,99.90
2018-09-09T07:05:31.336Z,99.90
2018-09-09T07:08:00.179Z,99.90
2018-09-09T07:10:29.056Z,99.90
2018-09-09T07:12:57.933Z,99.90
2018-09-09T07:15:26.820Z,99.90
2018-09-09T07:17:55.703Z,99.90
2018-09-09T07:20:24.622Z,99.90
2018-09-09T07:22:53.852Z,99.90
2018-09-09T07:25:22.761Z,99.90
2018-09-09T07:27:51.624Z,99.90
2018-09-09T07:30:20.590Z,99.90
2018-09-09T07:32:49.457Z,99.90
2018-09-09T07:35:18.384Z,99.90
2018-09-09T07:37:47.203Z,99.90
2018-09-09T07:40:16.164Z,99.90
2018-09-09T07:42:44.992Z,99.90
2018-09-09T07:45:13.838Z,99.90
2018-09-09T07:47:42.678Z,99.90
2018-09-09T07:50:11.628Z,99.90
2018-09-09T07:52:40.468Z,99.90
2018-09-09T07:55:09.449Z,99.90
2018-09-09T07:57:38.295Z,99.90
2018-09-09T08:00:07.747Z,99.90
2018-09-09T08:02:36.644Z,99.90
2018-09-09T08:05:05.704Z,99.90
2018-09-09T08:07:34.623Z,99.90
2018-09-09T08:10:03.664Z,99.90
2018-09-09T08:12:32.537Z,99.90
2018-09-09T08:15:01.464Z,99.90
2018-09-09T08:17:30.364Z,99.90
2018-09-09T08:19:59.412Z,99.90
2018-09-09T08:22:28.804Z,99.90
2018-09-09T08:24:57.738Z,99.90
2018-09-09T08:27:26.678Z,99.90
2018-09-09T08:29:56.210Z,99.90
2018-09-09T08:32:25.621Z,99.90
2018-09-09T08:34:54.632Z,99.90
2018-09-09T08:37:24.697Z,99.90
2018-09-09T08:39:53.888Z,99.90
2018-09-09T08:42:22.743Z,99.90
2018-09-09T08:44:51.620Z,99.90
2018-09-09T08:47:20.555Z,99.90
2018-09-09T08:49:49.482Z,99.90
2018-09-09T08:52:18.403Z,99.90
2018-09-09T08:54:47.236Z,99.90
2018-09-09T08:57:16.142Z,99.90
2018-09-09T08:59:45.034Z,99.90
2018-09-09T09:02:13.934Z,99.90
2018-09-09T09:04:42.795Z,99.90
2018-09-09T09:07:12.908Z,99.90
2018-09-09T09:09:42.024Z,99.90
2018-09-09T09:12:11.886Z,99.90
2018-09-09T09:14:42.457Z,99.90
2018-09-09T09:17:11.496Z,99.90
2018-09-09T09:19:40.480Z,99.90
2018-09-09T09:22:09.614Z,99.90
2018-09-09T09:24:38.452Z,99.90
2018-09-09T09:27:07.287Z,99.90
2018-09-09T09:29:41.840Z,99.90
2018-09-09T09:32:10.699Z,99.90
2018-09-09T09:34:39.755Z,99.90
2018-09-09T09:37:08.666Z,99.90
2018-09-09T09:39:37.634Z,99.90
2018-09-09T09:42:06.607Z,99.90
2018-09-09T09:44:35.484Z,99.90
2018-09-09T09:47:04.336Z,99.90
2018-09-09T09:49:33.311Z,99.90
2018-09-09T09:52:02.155Z,99.90
2018-09-09T09:54:31.025Z,99.90
2018-09-09T09:57:00.231Z,99.90
2018-09-09T09:59:29.364Z,99.90
2018-09-09T10:01:58.425Z,99.90
2018-09-09T10:04:27.457Z,99.90
2018-09-09T10:06:56.461Z,99.90
2018-09-09T10:09:25.545Z,99.90
2018-09-09T10:11:54.715Z,99.90
2018-09-09T10:14:23.611Z,99.90
2018-09-09T10:16:52.536Z,99.90
2018-09-09T10:19:21.582Z,99.90
2018-09-09T10:21:50.516Z,99.90
2018-09-09T10:24:19.419Z,99.90
2018-09-09T10:26:48.327Z,99.90
2018-09-09T10:29:17.323Z,99.90
2018-09-09T10:31:46.295Z,99.90
2018-09-09T10:34:15.152Z,99.90
2018-09-09T10:36:44.079Z,99.90
2018-09-09T10:39:13.131Z,99.90
2018-09-09T10:41:41.980Z,99.90
2018-09-09T10:44:10.860Z,99.90
2018-09-09T10:46:39.793Z,99.90
2018-09-09T10:49:08.629Z,99.90
2018-09-09T10:51:37.627Z,99.90
2018-09-09T10:54:06.628Z,99.90
2018-09-09T10:56:35.508Z,99.90
2018-09-09T10:59:04.686Z,99.90
2018-09-09T11:01:33.619Z,99.90
2018-09-09T11:04:02.649Z,99.90
2018-09-09T11:06:31.520Z,99.90
2018-09-09T11:09:00.408Z,99.90
2018-09-09T11:11:29.409Z,99.90
2018-09-09T11:13:58.292Z,99.90
2018-09-09T11:16:27.223Z,99.90
2018-09-09T11:18:56.224Z,99.90
2018-09-09T11:21:25.122Z,99.90
2018-09-09T11:23:53.999Z,99.90
2018-09-09T11:26:23.029Z,99.90
2018-09-09T11:28:51.959Z,99.90
2018-09-09T11:31:21.023Z,99.90
2018-09-09T11:33:50.498Z,99.90
2018-09-09T11:36:19.449Z,99.90
2018-09-09T11:38:48.299Z,99.90
2018-09-09T11:41:17.307Z,99.90
2018-09-09T11:43:46.410Z,99.90
2018-09-09T11:46:15.311Z,99.90
2018-09-09T11:48:44.191Z,99.90
2018-09-09T11:51:13.138Z,99.90
2018-09-09T11:53:42.053Z,99.50
2018-09-09T11:56:11.096Z,99.40
2018-09-09T11:58:39.979Z,99.40
2018-09-09T12:01:09.007Z,99.00
2018-09-09T12:03:37.943Z,98.90
2018-09-09T12:06:06.903Z,97.60
2018-09-09T12:08:35.915Z,97.40
2018-09-09T12:11:06.009Z,97.40
2018-09-09T12:13:34.889Z,97.80
2018-09-09T12:16:04.031Z,98.50
2018-09-09T12:18:32.975Z,96.30
2018-09-09T12:21:05.679Z,96.90
2018-09-09T12:23:34.545Z,97.20
2018-09-09T12:26:03.466Z,95.10
2018-09-09T12:28:32.360Z,94.50
2018-09-09T12:31:01.450Z,95.10
2018-09-09T12:33:30.662Z,96.10
2018-09-09T12:35:59.725Z,95.80
2018-09-09T12:38:28.639Z,94.30
2018-09-09T12:41:01.644Z,94.30
2018-09-09T12:43:36.187Z,92.20
2018-09-09T12:46:10.824Z,92.90
2018-09-09T12:48:45.332Z,92.60
2018-09-09T12:51:15.384Z,93.60
2018-09-09T12:53:44.259Z,92.30
2018-09-09T12:56:13.127Z,92.30
2018-09-09T12:58:42.263Z,91.20
2018-09-09T13:01:15.235Z,90.00
2018-09-09T13:03:44.111Z,90.60
2018-09-09T13:06:13.006Z,90.80
2018-09-09T13:08:41.915Z,91.00
2018-09-09T13:11:11.012Z,89.80
2018-09-09T13:13:39.908Z,91.10
2018-09-09T13:16:08.767Z,87.00
2018-09-09T13:18:37.685Z,89.40
2018-09-09T13:21:06.837Z,88.40
2018-09-09T13:23:35.726Z,89.30
2018-09-09T13:26:04.767Z,90.00
2018-09-09T13:28:33.644Z,88.00
2018-09-09T13:31:03.732Z,88.40
2018-09-09T13:33:32.923Z,85.00
2018-09-09T13:36:01.786Z,84.00
2018-09-09T13:38:31.768Z,85.00
2018-09-09T13:41:00.719Z,86.80
2018-09-09T13:43:29.648Z,81.10
2018-09-09T13:45:58.525Z,83.30
2018-09-09T13:48:27.422Z,81.90
2018-09-09T13:50:56.521Z,83.50
2018-09-09T13:53:25.359Z,83.10
2018-09-09T13:55:54.228Z,81.10
2018-09-09T13:58:23.243Z,84.80
2018-09-09T14:00:53.277Z,83.50
2018-09-09T14:03:22.128Z,80.90
2018-09-09T14:05:50.983Z,82.70
2018-09-09T14:08:20.023Z,78.80
2018-09-09T14:10:48.985Z,79.90
2018-09-09T14:13:18.433Z,78.70
2018-09-09T14:15:47.368Z,79.10
2018-09-09T14:18:16.265Z,79.60
2018-09-09T14:20:45.186Z,77.70
2018-09-09T14:23:14.031Z,84.00
2018-09-09T14:25:42.894Z,78.90
2018-09-09T14:28:11.755Z,81.70
2018-09-09T14:30:40.684Z,80.90
2018-09-09T14:33:09.573Z,81.20
2018-09-09T14:35:38.464Z,77.40
2018-09-09T14:38:07.340Z,77.10
2018-09-09T14:40:36.331Z,78.20
2018-09-09T14:43:05.392Z,80.30
2018-09-09T14:45:34.256Z,80.40
2018-09-09T14:48:03.171Z,80.40
2018-09-09T14:50:32.093Z,80.80
2018-09-09T14:53:00.990Z,78.60
2018-09-09T14:55:29.830Z,76.00
2018-09-09T14:57:58.695Z,78.90
2018-09-09T15:00:27.691Z,82.50
2018-09-09T15:02:56.592Z,83.50
2018-09-09T15:05:25.592Z,85.50
2018-09-09T15:07:54.659Z,86.90
2018-09-09T15:10:23.772Z,84.90
2018-09-09T15:12:52.639Z,85.30
2018-09-09T15:15:21.503Z,85.80
2018-09-09T15:17:50.348Z,86.30
2018-09-09T15:20:19.200Z,85.90
2018-09-09T15:22:48.015Z,86.70
2018-09-09T15:25:16.863Z,88.70
2018-09-09T15:27:45.712Z,89.30
2018-09-09T15:30:14.619Z,90.10
2018-09-09T15:32:43.411Z,90.50
2018-09-09T15:35:12.243Z,90.40
2018-09-09T15:37:41.095Z,91.60
2018-09-09T15:40:10.008Z,91.60
2018-09-09T15:42:38.814Z,91.40
2018-09-09T15:45:07.705Z,91.40
2018-09-09T15:47:36.532Z,92.90
2018-09-09T15:50:05.527Z,90.50
2018-09-09T15:52:34.360Z,91.60
2018-09-09T15:55:03.271Z,91.20
2018-09-09T15:57:32.099Z,92.90
2018-09-09T16:00:00.998Z,92.40
2018-09-09T16:02:29.892Z,93.30
2018-09-09T16:04:58.719Z,93.90
2018-09-09T16:07:27.715Z,93.90
2018-09-09T16:09:56.579Z,92.40
2018-09-09T16:12:25.440Z,94.10
2018-09-09T16:14:54.280Z,93.10
2018-09-09T16:17:23.114Z,93.00
2018-09-09T16:19:52.095Z,93.20
2018-09-09T16:22:20.952Z,93.60
2018-09-09T16:24:49.796Z,94.20
2018-09-09T16:27:18.672Z,95.50
2018-09-09T16:29:47.724Z,95.90
2018-09-09T16:32:16.627Z,96.10
2018-09-09T16:34:45.552Z,96.10
2018-09-09T16:37:14.403Z,96.00
2018-09-09T16:39:43.336Z,96.10
2018-09-09T16:42:12.135Z,97.30
2018-09-09T16:44:41.012Z,97.30
2018-09-09T16:47:09.952Z,98.10
2018-09-09T16:49:38.995Z,98.20
2018-09-09T16:52:07.852Z,98.50
2018-09-09T16:54:36.950Z,99.40
2018-09-09T16:57:06.072Z,99.60
2018-09-09T16:59:35.009Z,99.90
2018-09-09T17:02:03.872Z,99.90
2018-09-09T17:04:32.709Z,99.90
2018-09-09T17:07:01.527Z,99.90
2018-09-09T17:09:30.355Z,99.90
2018-09-09T17:11:59.204Z,99.90
2018-09-09T17:14:28.050Z,99.90
2018-09-09T17:16:56.940Z,99.90
2018-09-09T17:19:25.811Z,99.90
2018-09-09T17:21:54.664Z,99.90
2018-09-09T17:24:23.563Z,99.90
2018-09-09T17:26:52.501Z,99.90
2018-09-09T17:29:21.396Z,99.90
2018-09-09T17:31:50.246Z,99.90
2018-09-09T17:34:19.099Z,99.90
2018-09-09T17:36:47.961Z,99.90
2018-09-09T17:39:16.848Z,99.90
2018-09-09T17:41:45.688Z,99.90
2018-09-09T17:44:14.503Z,99.90
2018-09-09T17:46:43.348Z,99.90
2018-09-09T17:49:12.158Z,99.90
2018-09-09T17:51:41.071Z,99.90
2018-09-09T17:54:09.965Z,99.90
2018-09-09T17:56:38.809Z,99.90
2018-09-09T17:59:07.745Z,99.90
2018-09-09T18:01:36.719Z,99.90
2018-09-09T18:04:05.780Z,99.90
2018-09-09T18:06:34.671Z,99.90
2018-09-09T18:09:05.123Z,99.90
2018-09-09T18:11:33.980Z,99.90
2018-09-09T18:14:02.853Z,99.90
2018-09-09T18:16:32.375Z,99.90
2018-09-09T18:19:01.213Z,99.90
2018-09-09T18:21:30.048Z,99.90
2018-09-09T18:23:58.907Z,99.90
2018-09-09T18:26:27.746Z,99.90
2018-09-09T18:28:56.770Z,99.90
2018-09-09T18:31:25.717Z,99.90
2018-09-09T18:33:54.869Z,99.90
2018-09-09T18:36:23.764Z,99.90
2018-09-09T18:38:52.642Z,99.90
2018-09-09T18:41:21.604Z,99.90
2018-09-09T18:43:51.061Z,99.90
2018-09-09T18:46:19.871Z,99.90
2018-09-09T18:48:48.765Z,99.90
2018-09-09T18:51:17.864Z,99.90
2018-09-09T18:53:46.741Z,99.90
2018-09-09T18:56:15.583Z,99.90
2018-09-09T18:58:44.424Z,99.90
2018-09-09T19:01:13.346Z,99.90
2018-09-09T19:03:42.195Z,99.90
2018-09-09T19:06:11.793Z,99.90
2018-09-09T19:08:40.558Z,99.90
2018-09-09T19:11:09.433Z,99.90
2018-09-09T19:13:38.840Z,99.90
2018-09-09T19:16:07.684Z,99.90
2018-09-09T19:18:36.569Z,99.90
2018-09-09T19:21:05.487Z,99.90
2018-09-09T19:23:35.071Z,99.90
2018-09-09T19:26:03.961Z,99.90
2018-09-09T19:28:32.839Z,99.90
2018-09-09T19:31:02.018Z,99.90
2018-09-09T19:33:30.846Z,99.90
2018-09-09T19:35:59.679Z,99.90
2018-09-09T19:38:29.899Z,99.90
2018-09-09T19:40:58.724Z,99.90
2018-09-09T19:43:27.635Z,99.90
2018-09-09T19:45:56.479Z,99.90
2018-09-09T19:48:25.356Z,99.90
2018-09-09T19:50:54.300Z,99.90
2018-09-09T19:53:23.536Z,99.90
2018-09-09T19:55:52.635Z,99.90
2018-09-09T19:58:21.601Z,99.90
2018-09-09T20:00:50.924Z,99.90
2018-09-09T20:03:19.847Z,99.90
2018-09-09T20:05:48.771Z,99.90
2018-09-09T20:08:17.601Z,99.90
2018-09-09T20:10:46.565Z,99.90
2018-09-09T20:13:15.412Z,99.90
2018-09-09T20:15:44.309Z,99.90
2018-09-09T20:18:13.166Z,99.90
2018-09-09T20:20:42.010Z,99.90
2018-09-09T20:23:11.153Z,99.90
2018-09-09T20:25:40.057Z,99.90
2018-09-09T20:28:08.885Z,99.90
2018-09-09T20:30:37.811Z,99.90
2018-09-09T20:33:06.515Z,99.90
2018-09-09T20:35:35.388Z,99.90
2018-09-09T20:38:04.347Z,99.90
2018-09-09T20:40:33.510Z,99.90
2018-09-09T20:43:02.459Z,99.90
2018-09-09T20:45:31.348Z,99.90
2018-09-09T20:48:00.201Z,99.90
2018-09-09T20:50:29.116Z,99.90
2018-09-09T20:52:57.939Z,99.90
2018-09-09T20:55:26.784Z,99.90
2018-09-09T20:57:55.651Z,99.90
2018-09-09T21:00:24.709Z,99.90
2018-09-09T21:02:53.519Z,99.90
2018-09-09T21:05:22.388Z,99.90
2018-09-09T21:07:51.264Z,99.90
2018-09-09T21:10:20.160Z,99.90
2018-09-09T21:12:49.103Z,99.90
2018-09-09T21:15:18.055Z,99.90
2018-09-09T21:17:46.936Z,99.90
2018-09-09T21:20:15.932Z,99.90
2018-09-09T21:22:44.792Z,99.90
2018-09-09T21:25:13.622Z,99.90
2018-09-09T21:27:42.499Z,99.90
2018-09-09T21:30:11.408Z,99.90
2018-09-09T21:32:40.291Z,99.90
2018-09-09T21:35:09.161Z,99.90
2018-09-09T21:37:38.021Z,99.90
2018-09-09T21:40:06.967Z,99.90
2018-09-09T21:42:35.927Z,99.90
2018-09-09T21:45:05.438Z,99.90
2018-09-09T21:47:34.323Z,99.90
2018-09-09T21:50:03.320Z,99.90
2018-09-09T21:52:32.303Z,99.90
2018-09-09T21:55:01.237Z,99.90
2018-09-09T21:57:30.080Z,99.90
2018-09-09T21:59:58.943Z,99.90
2018-09-09T22:02:27.818Z,99.90
2018-09-09T22:04:56.788Z,99.90
2018-09-09T22:07:25.785Z,99.90
2018-09-09T22:09:54.733Z,99.90
2018-09-09T22:12:23.736Z,99.90
2018-09-09T22:14:52.566Z,99.90
2018-09-09T22:17:21.375Z,99.90
2018-09-09T22:19:50.299Z,99.90
2018-09-09T22:22:19.118Z,99.90
2018-09-09T22:24:47.936Z,99.90
2018-09-09T22:27:16.848Z,99.90
2018-09-09T22:29:45.747Z,99.90
2018-09-09T22:32:14.576Z,99.90
2018-09-09T22:34:43.443Z,99.90
2018-09-09T22:37:12.307Z,99.90
2018-09-09T22:39:41.360Z,99.90
2018-09-09T22:42:10.220Z,99.90
2018-09-09T22:44:39.060Z,99.90
2018-09-09T22:47:07.898Z,99.90
2018-09-09T22:49:36.787Z,99.90
2018-09-09T22:52:06.163Z,99.90
2018-09-09T22:54:34.995Z,99.90
2018-09-09T22:57:03.903Z,99.90
2018-09-09T22:59:32.745Z,99.90
2018-09-09T23:02:01.582Z,99.90
2018-09-09T23:04:30.427Z,99.90
2018-09-09T23:06:59.361Z,99.90
2018-09-09T23:09:28.404Z,99.90
2018-09-09T23:11:57.219Z,99.90
2018-09-09T23:14:26.035Z,99.90
2018-09-09T23:16:54.888Z,99.90
2018-09-09T23:19:23.764Z,99.90
2018-09-09T23:21:52.599Z,99.90
2018-09-09T23:24:21.463Z,99.90
2018-09-09T23:26:50.286Z,99.90
2018-09-09T23:29:19.364Z,99.90
2018-09-09T23:31:48.267Z,99.90
2018-09-09T23:34:17.211Z,99.90
2018-09-09T23:36:46.048Z,99.90
2018-09-09T23:39:14.892Z,99.90
2018-09-09T23:41:43.740Z,99.90
2018-09-09T23:44:12.562Z,99.90
2018-09-09T23:46:41.551Z,99.90
2018-09-09T23:49:10.472Z,99.90
2018-09-09T23:51:39.354Z,99.90
2018-09-09T23:54:08.201Z,99.90
2018-09-09T23:56:37.256Z,99.90
2018-09-09T23:59:06.239Z,99.90
